createdAt,value
2022-07-27T00:05:00.058Z,15.07
2022-07-27T00:10:02.450Z,13.68
2022-07-27T00:15:06.946Z,13.93
2022-07-27T00:20:09.869Z,13.73
2022-07-27T00:25:12.286Z,13.25
2022-07-27T00:30:18.864Z,13.55
2022-07-27T00:35:21.273Z,12.88
2022-07-27T00:40:23.719Z,13.95
2022-07-27T00:45:25.992Z,13.30
2022-07-27T00:50:28.388Z,12.32
2022-07-27T00:55:33.274Z,12.95
2022-07-27T01:00:39.383Z,12.85
2022-07-27T01:05:43.059Z,13.15
2022-07-27T01:10:46.755Z,12.57
2022-07-27T01:15:49.159Z,13.25
2022-07-27T01:20:51.473Z,11.90
2022-07-27T01:25:54.630Z,12.38
2022-07-27T01:31:15.617Z,13.10
2022-07-27T01:36:17.969Z,13.02
2022-07-27T01:41:20.276Z,13.10
2022-07-27T01:46:23.005Z,13.37
2022-07-27T01:51:25.395Z,13.52
2022-07-27T01:56:27.771Z,13.55
2022-07-27T02:01:30.216Z,14.07
2022-07-27T02:06:32.610Z,14.07
2022-07-27T02:11:53.536Z,13.25
2022-07-27T02:16:55.824Z,13.68
2022-07-27T02:21:58.101Z,13.27
2022-07-27T02:27:00.386Z,15.32
2022-07-27T02:32:02.824Z,12.20
2022-07-27T02:37:05.919Z,12.70
2022-07-27T02:42:08.348Z,13.50
2022-07-27T02:47:10.998Z,13.25
2022-07-27T02:52:13.395Z,14.20
2022-07-27T02:57:15.803Z,13.67
2022-07-27T03:02:18.202Z,14.47
2022-07-27T03:07:20.569Z,13.80
2022-07-27T03:12:23.008Z,13.70
2022-07-27T03:17:25.546Z,14.63
2022-07-27T03:22:31.052Z,14.35
2022-07-27T03:27:33.368Z,16.08
2022-07-27T03:32:35.686Z,14.52
2022-07-27T03:37:38.057Z,16.65
2022-07-27T03:42:40.339Z,15.98
2022-07-27T03:47:42.677Z,15.38
2022-07-27T03:52:45.583Z,16.45
2022-07-27T03:57:48.246Z,16.02
2022-07-27T04:02:50.648Z,18.60
2022-07-27T04:07:54.951Z,16.17
2022-07-27T04:12:57.454Z,18.25
2022-07-27T04:18:00.955Z,17.90
2022-07-27T04:23:03.315Z,16.90
2022-07-27T04:28:05.969Z,19.23
2022-07-27T04:33:08.199Z,19.02
2022-07-27T04:38:10.444Z,18.70
2022-07-27T04:43:12.891Z,18.63
2022-07-27T04:48:15.195Z,16.92
2022-07-27T04:53:17.563Z,17.73
2022-07-27T04:58:20.000Z,18.35
2022-07-27T05:03:22.335Z,18.70
2022-07-27T05:08:24.763Z,19.60
2022-07-27T05:13:27.159Z,18.80
2022-07-27T05:18:29.565Z,19.02
2022-07-27T05:23:31.998Z,18.55
2022-07-27T05:28:34.300Z,18.73
2022-07-27T05:33:36.759Z,18.50
2022-07-27T05:38:39.738Z,19.48
2022-07-27T05:43:42.179Z,18.15
2022-07-27T05:48:44.671Z,19.08
2022-07-27T05:53:46.994Z,19.02
2022-07-27T05:58:51.865Z,19.00
2022-07-27T06:03:54.202Z,19.83
2022-07-27T06:08:56.599Z,18.38
2022-07-27T06:13:59.095Z,17.58
2022-07-27T06:19:01.506Z,18.27
2022-07-27T06:24:03.981Z,17.30
2022-07-27T06:29:10.572Z,17.92
2022-07-27T06:34:13.326Z,18.20
2022-07-27T06:39:17.240Z,19.23
2022-07-27T06:44:19.541Z,18.88
2022-07-27T06:49:22.286Z,17.27
2022-07-27T06:54:24.804Z,17.35
2022-07-27T06:59:27.205Z,16.08
2022-07-27T07:04:46.344Z,15.55
2022-07-27T07:09:48.817Z,18.17
2022-07-27T07:14:51.140Z,18.08
2022-07-27T07:19:53.450Z,16.02
2022-07-27T07:25:00.696Z,16.80
2022-07-27T07:30:05.949Z,17.27
2022-07-27T07:35:08.802Z,16.30
2022-07-27T07:45:50.424Z,14.15
2022-07-27T07:51:11.335Z,14.85
2022-07-27T07:56:30.164Z,13.75
2022-07-27T08:01:35.397Z,15.68
2022-07-27T08:06:40.579Z,17.13
2022-07-27T08:11:48.882Z,15.70
2022-07-27T08:16:51.100Z,15.95
2022-07-27T08:21:53.468Z,17.95
2022-07-27T08:26:55.986Z,16.70
2022-07-27T08:31:58.510Z,16.77
2022-07-27T08:37:02.173Z,16.90
2022-07-27T08:42:05.211Z,18.48
2022-07-27T08:47:11.962Z,17.27
2022-07-27T08:52:14.339Z,19.77
2022-07-27T08:57:16.850Z,17.40
2022-07-27T09:02:21.965Z,18.70
2022-07-27T09:07:31.247Z,19.05
2022-07-27T09:12:34.507Z,18.75
2022-07-27T09:17:48.556Z,19.70
2022-07-27T09:22:56.541Z,18.30
2022-07-27T09:27:59.804Z,18.53
2022-07-27T09:33:06.760Z,18.92
2022-07-27T09:38:23.297Z,19.90
2022-07-27T09:48:48.155Z,18.77
2022-07-27T09:53:50.571Z,18.73
2022-07-27T09:58:56.825Z,19.75
2022-07-27T10:04:02.317Z,19.67
2022-07-27T10:09:04.934Z,18.45
2022-07-27T10:14:07.960Z,18.90
2022-07-27T10:19:16.908Z,19.40
2022-07-27T10:24:32.455Z,18.02
2022-07-27T10:29:34.772Z,19.08
2022-07-27T10:34:41.991Z,18.52
2022-07-27T10:39:51.405Z,18.95
2022-07-27T10:44:59.648Z,17.67
2022-07-27T10:50:17.673Z,19.27
2022-07-27T11:01:02.291Z,17.40
2022-07-27T11:06:31.876Z,18.02
2022-07-27T11:11:34.884Z,17.08
2022-07-27T11:16:53.988Z,17.95
2022-07-27T11:21:58.245Z,16.75
2022-07-27T11:27:00.557Z,18.20
2022-07-27T11:32:19.666Z,19.10
2022-07-27T11:37:24.358Z,17.48
2022-07-27T11:42:37.809Z,17.70
2022-07-27T11:47:40.264Z,18.77
2022-07-27T11:52:45.797Z,17.63
2022-07-27T11:57:48.186Z,17.45
2022-07-27T12:02:51.807Z,17.20
2022-07-27T12:07:54.775Z,16.92
2022-07-27T12:12:57.112Z,18.83
2022-07-27T12:17:59.460Z,16.90
2022-07-27T12:23:07.127Z,18.20
2022-07-27T12:28:13.440Z,17.75
2022-07-27T12:33:30.676Z,18.45
2022-07-27T12:38:43.883Z,18.75
2022-07-27T12:43:46.586Z,18.20
2022-07-27T12:48:49.078Z,18.73
2022-07-27T12:53:52.713Z,18.50
2022-07-27T12:59:02.442Z,18.30
2022-07-27T13:04:04.813Z,18.75
2022-07-27T13:09:07.103Z,19.60
2022-07-27T13:14:09.562Z,19.60
2022-07-27T13:19:15.920Z,16.73
2022-07-27T13:24:21.851Z,19.20
2022-07-27T13:29:24.231Z,17.77
2022-07-27T13:34:26.700Z,17.52
2022-07-27T13:39:30.094Z,18.58
2022-07-27T13:49:58.969Z,14.07
2022-07-27T13:55:01.426Z,14.88
2022-07-27T14:00:05.889Z,14.63
2022-07-27T14:05:08.876Z,14.27
2022-07-27T14:10:31.363Z,16.35
2022-07-27T14:15:34.579Z,14.48
2022-07-27T14:20:53.876Z,14.23
2022-07-27T14:25:57.284Z,15.00
2022-07-27T14:31:00.917Z,16.05
2022-07-27T14:36:04.590Z,16.02
2022-07-27T14:41:07.184Z,17.35
2022-07-27T14:46:09.510Z,16.77
2022-07-27T14:51:11.860Z,15.38
2022-07-27T14:56:14.276Z,17.52
2022-07-27T15:01:17.247Z,18.95
2022-07-27T15:06:19.883Z,19.88
2022-07-27T15:11:22.254Z,19.85
2022-07-27T15:16:24.882Z,18.63
2022-07-27T15:21:27.796Z,18.10
2022-07-27T15:26:30.133Z,18.27
2022-07-27T15:31:32.554Z,19.02
2022-07-27T15:36:40.565Z,19.83
2022-07-27T15:41:46.467Z,17.50
2022-07-27T15:46:49.238Z,17.67
2022-07-27T15:51:52.873Z,17.85
2022-07-27T15:56:57.800Z,18.45
2022-07-27T16:02:00.279Z,18.50
2022-07-27T16:07:02.606Z,19.48
2022-07-27T16:12:05.091Z,19.83
2022-07-27T16:17:07.492Z,19.23
2022-07-27T16:22:10.287Z,18.83
2022-07-27T16:27:12.769Z,19.13
2022-07-27T16:32:15.188Z,17.90
2022-07-27T16:37:17.659Z,18.98
2022-07-27T16:42:20.183Z,17.80
2022-07-27T16:47:24.008Z,19.27
2022-07-27T16:52:26.456Z,19.27
2022-07-27T16:57:28.849Z,17.52
2022-07-27T17:02:31.244Z,16.45
2022-07-27T17:07:33.754Z,16.50
2022-07-27T17:12:39.438Z,16.33
2022-07-27T17:17:41.883Z,13.68
2022-07-27T17:22:44.347Z,14.85
2022-07-27T17:27:47.185Z,13.45
2022-07-27T17:32:49.657Z,15.80
2022-07-27T17:38:07.632Z,14.48
2022-07-27T17:43:10.275Z,14.00
2022-07-27T17:48:12.798Z,13.95
2022-07-27T17:53:16.062Z,15.70
2022-07-27T17:58:18.518Z,13.82
2022-07-27T18:03:22.166Z,15.75
2022-07-27T18:08:24.916Z,14.20
2022-07-27T18:13:38.016Z,15.00
2022-07-27T18:18:42.753Z,15.13
2022-07-27T18:23:47.040Z,15.77
2022-07-27T18:28:51.193Z,14.48
2022-07-27T18:33:54.778Z,12.07
2022-07-27T18:38:58.143Z,12.88
2022-07-27T18:44:00.579Z,14.13
2022-07-27T18:49:06.019Z,11.68
2022-07-27T18:59:26.558Z,8.00
2022-07-27T19:04:29.931Z,6.53
2022-07-27T19:09:37.129Z,6.80
2022-07-27T19:14:39.976Z,7.60
2022-07-27T19:19:42.628Z,8.45
2022-07-27T19:24:54.963Z,7.78
2022-07-27T19:29:59.237Z,7.20
2022-07-27T19:35:01.765Z,5.50
2022-07-27T19:40:20.108Z,4.70
2022-07-27T19:45:27.254Z,4.68
2022-07-27T19:50:29.788Z,4.65
2022-07-27T19:55:35.409Z,4.55
2022-07-27T20:00:41.127Z,5.35
2022-07-27T20:05:43.655Z,5.53
2022-07-27T20:10:47.625Z,5.90
2022-07-27T20:15:50.146Z,5.75
2022-07-27T20:20:52.503Z,5.78
2022-07-27T20:25:54.901Z,5.88
2022-07-27T20:30:57.402Z,6.00
2022-07-27T20:35:59.839Z,5.50
2022-07-27T20:41:02.154Z,5.43
2022-07-27T20:46:04.651Z,6.30
2022-07-27T20:51:07.064Z,5.88
2022-07-27T20:56:09.547Z,5.45
2022-07-27T21:01:12.076Z,6.32
2022-07-27T21:06:14.402Z,5.55
2022-07-27T21:11:16.816Z,6.00
2022-07-27T21:16:19.269Z,5.70
2022-07-27T21:21:26.973Z,6.25
2022-07-27T21:26:30.077Z,5.78
2022-07-27T21:31:32.539Z,5.45
2022-07-27T21:36:35.372Z,7.18
2022-07-27T21:41:37.985Z,6.50
2022-07-27T21:46:40.277Z,5.82
2022-07-27T21:51:42.645Z,6.78
2022-07-27T21:56:50.338Z,6.45
2022-07-27T22:01:53.042Z,6.55
2022-07-27T22:06:56.101Z,7.00
2022-07-27T22:11:58.621Z,6.63
2022-07-27T22:17:03.348Z,7.10
2022-07-27T22:22:05.752Z,7.85
2022-07-27T22:27:08.147Z,6.70
2022-07-27T22:32:12.309Z,7.13
2022-07-27T22:37:15.188Z,7.60
2022-07-27T22:42:17.717Z,6.75
2022-07-27T22:47:20.100Z,6.47
2022-07-27T22:52:22.469Z,6.95
2022-07-27T22:57:26.000Z,7.55
2022-07-27T23:02:28.375Z,8.07
2022-07-27T23:07:30.663Z,7.88
2022-07-27T23:12:33.040Z,6.53
2022-07-27T23:17:35.319Z,7.15
2022-07-27T23:22:37.596Z,7.30
2022-07-27T23:27:40.983Z,7.85
2022-07-27T23:32:43.307Z,7.72
2022-07-27T23:37:45.612Z,8.60
2022-07-27T23:42:48.295Z,8.23
2022-07-27T23:47:50.734Z,8.35
2022-07-27T23:52:53.014Z,7.63
2022-07-27T23:57:55.309Z,7.95
